createdAt,value
2017-11-09T00:02:03.223Z,83.68
2017-11-09T00:04:36.466Z,73.90
2017-11-09T00:07:03.944Z,80.07
2017-11-09T00:09:31.412Z,79.00
2017-11-09T00:11:58.888Z,78.15
2017-11-09T00:14:26.355Z,87.72
2017-11-09T00:16:54.624Z,74.78
2017-11-09T00:19:22.091Z,73.78
2017-11-09T00:21:50.333Z,73.47
2017-11-09T00:24:17.802Z,82.70
2017-11-09T00:26:45.433Z,77.53
2017-11-09T00:29:12.891Z,76.78
2017-11-09T00:31:40.368Z,84.15
2017-11-09T00:34:07.836Z,81.05
2017-11-09T00:36:35.312Z,87.18
2017-11-09T00:39:03.624Z,75.95
2017-11-09T00:41:31.104Z,75.43
2017-11-09T00:43:58.578Z,82.18
2017-11-09T00:46:26.142Z,80.60
2017-11-09T00:48:53.606Z,69.93
2017-11-09T00:51:21.067Z,76.10
2017-11-09T00:53:49.307Z,73.87
2017-11-09T00:56:16.774Z,78.37
2017-11-09T00:58:44.250Z,71.18
2017-11-09T01:01:11.711Z,71.97
2017-11-09T01:03:39.266Z,82.55
2017-11-09T01:06:06.730Z,75.80
2017-11-09T01:08:34.979Z,79.35
2017-11-09T01:11:02.448Z,79.47
2017-11-09T01:13:31.420Z,73.30
2017-11-09T01:15:58.883Z,73.93
2017-11-09T01:18:26.360Z,82.50
2017-11-09T01:20:53.828Z,81.05
2017-11-09T01:23:22.063Z,78.22
2017-11-09T01:25:49.549Z,87.88
2017-11-09T01:28:17.014Z,80.12
2017-11-09T01:30:45.296Z,78.18
2017-11-09T01:33:13.528Z,69.87
2017-11-09T01:35:41.007Z,81.75
2017-11-09T01:38:08.507Z,77.70
2017-11-09T01:40:36.028Z,82.60
2017-11-09T01:43:03.489Z,78.87
2017-11-09T01:45:31.722Z,82.55
2017-11-09T01:47:59.177Z,72.90
2017-11-09T01:50:26.647Z,76.55
2017-11-09T01:52:54.110Z,76.97
2017-11-09T01:55:21.583Z,77.97
2017-11-09T01:57:49.129Z,73.80
2017-11-09T02:00:16.648Z,72.53
2017-11-09T02:02:44.102Z,74.72
2017-11-09T02:05:11.600Z,67.45
2017-11-09T02:07:39.161Z,63.97
2017-11-09T02:10:06.630Z,72.85
2017-11-09T02:12:34.954Z,74.45
2017-11-09T02:15:02.419Z,80.03
2017-11-09T02:17:29.893Z,84.90
2017-11-09T02:19:57.358Z,87.28
2017-11-09T02:22:24.829Z,85.28
2017-11-09T02:24:53.101Z,78.12
2017-11-09T02:27:20.654Z,72.72
2017-11-09T02:29:48.110Z,78.62
2017-11-09T02:32:15.585Z,71.32
2017-11-09T02:34:43.131Z,75.07
2017-11-09T02:37:10.599Z,73.28
2017-11-09T02:39:38.053Z,82.37
2017-11-09T02:42:05.598Z,77.30
2017-11-09T02:44:33.054Z,76.25
2017-11-09T02:47:00.618Z,77.25
2017-11-09T02:49:28.080Z,75.28
2017-11-09T02:51:55.633Z,68.62
2017-11-09T02:54:29.086Z,80.35
2017-11-09T02:56:56.589Z,79.62
2017-11-09T02:59:24.160Z,80.20
2017-11-09T03:01:52.399Z,80.65
2017-11-09T03:04:19.937Z,78.40
2017-11-09T03:06:47.433Z,73.03
2017-11-09T03:09:14.898Z,80.68
2017-11-09T03:11:42.352Z,77.28
2017-11-09T03:14:09.807Z,77.07
2017-11-09T03:16:37.358Z,79.03
2017-11-09T03:19:04.826Z,75.57
2017-11-09T03:21:32.277Z,74.05
2017-11-09T03:23:59.745Z,82.80
2017-11-09T03:26:27.217Z,78.65
2017-11-09T03:28:55.446Z,72.37
2017-11-09T03:31:22.930Z,75.45
2017-11-09T03:33:50.402Z,81.60
2017-11-09T03:36:18.649Z,71.90
2017-11-09T03:38:46.118Z,77.03
2017-11-09T03:41:13.626Z,75.15
2017-11-09T03:43:41.144Z,74.43
2017-11-09T03:46:08.701Z,76.30
2017-11-09T03:48:36.241Z,74.95
2017-11-09T03:51:03.681Z,78.70
2017-11-09T03:53:31.154Z,74.78
2017-11-09T03:55:58.621Z,85.68
2017-11-09T03:58:26.833Z,80.75
2017-11-09T04:00:54.302Z,77.70
2017-11-09T04:03:21.798Z,72.07
2017-11-09T04:05:49.318Z,71.97
2017-11-09T04:08:16.780Z,76.00
2017-11-09T04:10:44.249Z,76.55
2017-11-09T04:13:11.718Z,81.25
2017-11-09T04:15:39.292Z,75.05
2017-11-09T04:18:06.841Z,81.53
2017-11-09T04:20:34.314Z,67.18
2017-11-09T04:23:01.775Z,82.62
2017-11-09T04:25:29.243Z,63.28
2017-11-09T04:27:57.461Z,80.60
2017-11-09T04:30:24.927Z,66.70
2017-11-09T04:32:52.414Z,76.28
2017-11-09T04:35:19.874Z,71.30
2017-11-09T04:37:47.426Z,73.57
2017-11-09T04:40:14.910Z,73.90
2017-11-09T04:42:43.213Z,85.65
2017-11-09T04:45:10.663Z,76.55
2017-11-09T04:47:38.133Z,70.78
2017-11-09T04:50:05.598Z,78.70
2017-11-09T04:52:33.067Z,79.22
2017-11-09T04:55:00.530Z,90.10
2017-11-09T04:57:28.124Z,75.65
2017-11-09T04:59:56.373Z,88.50
2017-11-09T05:02:23.951Z,78.45
2017-11-09T05:04:51.489Z,81.47
2017-11-09T05:07:19.129Z,71.20
2017-11-09T05:09:46.580Z,80.05
2017-11-09T05:12:14.229Z,74.90
2017-11-09T05:14:41.699Z,73.30
2017-11-09T05:17:09.173Z,82.53
2017-11-09T05:19:36.700Z,71.53
2017-11-09T05:22:04.158Z,81.20
2017-11-09T05:24:31.723Z,70.65
2017-11-09T05:26:59.217Z,70.20
2017-11-09T05:29:26.687Z,81.35
2017-11-09T05:31:54.907Z,81.55
2017-11-09T05:34:22.370Z,66.68
2017-11-09T05:36:49.852Z,82.78
2017-11-09T05:39:17.326Z,80.75
2017-11-09T05:41:44.790Z,79.07
2017-11-09T05:44:13.042Z,80.85
2017-11-09T05:46:40.518Z,75.30
2017-11-09T05:49:07.978Z,77.70
2017-11-09T05:51:36.201Z,73.30
2017-11-09T05:54:03.709Z,76.97
2017-11-09T05:56:31.251Z,76.68
2017-11-09T05:58:58.718Z,74.93
2017-11-09T06:01:26.283Z,73.20
2017-11-09T06:03:54.519Z,74.20
2017-11-09T06:06:21.994Z,72.20
2017-11-09T06:08:49.567Z,80.03
2017-11-09T06:11:17.022Z,78.85
2017-11-09T06:13:44.569Z,69.20
2017-11-09T06:16:12.239Z,75.15
2017-11-09T06:18:39.694Z,80.95
2017-11-09T06:21:07.165Z,78.75
2017-11-09T06:23:35.398Z,75.45
2017-11-09T06:26:02.853Z,70.53
2017-11-09T06:28:30.320Z,68.18
2017-11-09T06:30:57.790Z,71.00
2017-11-09T06:33:25.258Z,72.32
2017-11-09T06:35:52.805Z,76.32
2017-11-09T06:38:20.362Z,73.68
2017-11-09T06:40:47.922Z,80.03
2017-11-09T06:43:15.486Z,82.75
2017-11-09T06:45:42.950Z,84.00
2017-11-09T06:48:11.182Z,85.25
2017-11-09T06:50:38.639Z,83.12
2017-11-09T06:53:06.127Z,91.75
2017-11-09T06:55:33.691Z,77.40
2017-11-09T06:58:01.162Z,89.82
2017-11-09T07:00:28.622Z,92.37
2017-11-09T07:02:56.850Z,78.87
2017-11-09T07:05:24.315Z,79.15
2017-11-09T07:07:51.894Z,76.45
2017-11-09T07:10:19.361Z,85.75
2017-11-09T07:12:46.911Z,81.07
2017-11-09T07:15:14.368Z,77.30
2017-11-09T07:17:41.934Z,87.45
2017-11-09T07:20:09.399Z,90.28
2017-11-09T07:22:37.758Z,84.25
2017-11-09T07:25:05.318Z,72.25
2017-11-09T07:27:32.773Z,88.15
2017-11-09T07:30:00.237Z,73.18
2017-11-09T07:32:27.701Z,78.15
2017-11-09T07:34:55.962Z,72.12
2017-11-09T07:37:23.518Z,88.97
2017-11-09T07:39:51.001Z,79.78
2017-11-09T07:42:19.245Z,80.07
2017-11-09T07:44:46.806Z,80.93
2017-11-09T07:47:14.277Z,74.50
2017-11-09T07:49:41.741Z,72.47
2017-11-09T07:52:09.986Z,81.95
2017-11-09T07:54:37.466Z,76.53
2017-11-09T07:57:05.031Z,84.95
2017-11-09T07:59:32.494Z,77.20
2017-11-09T08:02:00.759Z,83.28
2017-11-09T08:04:28.234Z,73.05
2017-11-09T08:06:56.471Z,74.95
2017-11-09T08:09:23.952Z,80.45
2017-11-09T08:11:52.269Z,80.15
2017-11-09T08:14:21.311Z,68.93
2017-11-09T08:16:48.771Z,82.95
2017-11-09T08:19:16.232Z,67.87
2017-11-09T08:21:43.713Z,71.25
2017-11-09T08:24:12.978Z,83.30
2017-11-09T08:26:48.675Z,71.05
2017-11-09T08:29:19.455Z,77.40
2017-11-09T08:31:48.596Z,78.62
2017-11-09T08:34:16.065Z,81.65
2017-11-09T08:36:43.562Z,72.03
2017-11-09T08:39:11.025Z,79.90
2017-11-09T08:41:38.489Z,83.93
2017-11-09T08:44:06.052Z,79.10
2017-11-09T08:46:34.282Z,82.22
2017-11-09T08:49:01.778Z,86.45
2017-11-09T08:51:29.270Z,85.43
2017-11-09T08:53:56.725Z,81.35
2017-11-09T08:56:24.207Z,123.70
2017-11-09T08:58:51.663Z,92.80
2017-11-09T09:01:19.126Z,79.57
2017-11-09T09:03:46.599Z,79.95
2017-11-09T09:06:14.059Z,74.05
2017-11-09T09:08:41.529Z,86.85
2017-11-09T09:11:08.995Z,84.30
2017-11-09T09:13:36.456Z,86.10
2017-11-09T09:16:03.921Z,77.90
2017-11-09T09:18:32.156Z,78.55
2017-11-09T09:21:05.332Z,78.05
2017-11-09T09:23:32.782Z,89.50
2017-11-09T09:26:01.787Z,79.97
2017-11-09T09:28:29.758Z,74.18
2017-11-09T09:30:57.741Z,83.15
2017-11-09T09:33:28.827Z,81.32
2017-11-09T09:39:03.619Z,78.43
2017-11-09T09:41:31.087Z,91.63
2017-11-09T09:43:58.541Z,77.85
2017-11-09T09:46:26.003Z,78.22
2017-11-09T09:48:53.464Z,83.05
2017-11-09T09:51:20.926Z,74.05
2017-11-09T09:53:48.483Z,90.45
2017-11-09T09:56:15.956Z,76.97
2017-11-09T09:58:44.211Z,74.90
2017-11-09T10:01:11.727Z,69.07
2017-11-09T10:03:39.194Z,67.62
2017-11-09T10:06:06.658Z,71.45
2017-11-09T10:08:34.118Z,69.03
2017-11-09T10:11:01.577Z,75.40
2017-11-09T10:13:29.059Z,68.25
2017-11-09T10:15:56.526Z,76.70
2017-11-09T10:18:24.752Z,67.07
2017-11-09T10:20:52.219Z,76.03
2017-11-09T10:23:19.683Z,68.30
2017-11-09T10:25:47.143Z,69.68
2017-11-09T10:28:16.465Z,85.57
2017-11-09T10:30:44.698Z,78.12
2017-11-09T10:33:12.177Z,67.32
2017-11-09T10:35:39.753Z,70.93
2017-11-09T10:38:07.303Z,64.57
2017-11-09T10:40:34.862Z,71.22
2017-11-09T10:43:02.354Z,73.95
2017-11-09T10:45:30.570Z,83.25
2017-11-09T10:47:58.120Z,79.93
2017-11-09T10:50:25.574Z,83.22
2017-11-09T10:52:53.067Z,80.30
2017-11-09T10:55:20.535Z,84.37
2017-11-09T10:57:48.006Z,91.22
2017-11-09T11:00:16.233Z,79.53
2017-11-09T11:02:43.785Z,82.25
2017-11-09T11:05:11.276Z,73.80
2017-11-09T11:07:38.770Z,79.22
2017-11-09T11:10:06.236Z,86.78
2017-11-09T11:12:33.706Z,78.65
2017-11-09T11:15:01.257Z,74.05
2017-11-09T11:17:28.758Z,77.78
2017-11-09T11:19:56.215Z,93.50
2017-11-09T11:22:23.687Z,77.85
2017-11-09T11:24:51.138Z,67.72
2017-11-09T11:27:18.686Z,76.43
2017-11-09T11:29:46.247Z,75.85
2017-11-09T11:32:13.721Z,82.80
2017-11-09T11:34:41.972Z,80.78
2017-11-09T11:37:13.430Z,72.57
2017-11-09T11:39:40.898Z,72.05
2017-11-09T11:42:09.161Z,76.62
2017-11-09T11:44:36.644Z,72.12
2017-11-09T11:47:04.857Z,73.62
2017-11-09T11:49:32.349Z,81.32
2017-11-09T11:51:59.822Z,82.12
2017-11-09T11:54:28.082Z,76.75
2017-11-09T11:56:55.631Z,83.20
2017-11-09T11:59:23.155Z,79.05
2017-11-09T12:01:50.615Z,74.50
2017-11-09T12:04:24.038Z,84.18
2017-11-09T12:06:51.507Z,77.37
2017-11-09T12:09:18.979Z,74.37
2017-11-09T12:12:03.122Z,82.78
2017-11-09T12:14:30.595Z,79.60
2017-11-09T12:16:58.820Z,67.93
2017-11-09T12:19:26.407Z,88.43
2017-11-09T12:21:53.967Z,75.20
2017-11-09T12:24:21.432Z,82.20
2017-11-09T12:26:49.659Z,82.40
2017-11-09T12:29:17.135Z,81.07
2017-11-09T12:31:44.612Z,87.62
2017-11-09T12:34:12.078Z,82.30
2017-11-09T12:36:40.319Z,79.28
2017-11-09T12:39:07.781Z,81.82
2017-11-09T12:41:35.250Z,83.37
2017-11-09T12:44:03.469Z,72.18
2017-11-09T12:46:30.955Z,82.10
2017-11-09T12:48:58.458Z,83.12
2017-11-09T12:51:26.719Z,86.80
2017-11-09T12:53:54.270Z,74.18
2017-11-09T12:56:21.763Z,77.87
2017-11-09T12:58:50.007Z,94.28
2017-11-09T13:01:17.563Z,70.28
2017-11-09T13:03:45.031Z,78.30
2017-11-09T13:06:12.497Z,78.03
2017-11-09T13:08:40.746Z,88.60
2017-11-09T13:11:08.205Z,94.87
2017-11-09T13:13:35.671Z,88.05
2017-11-09T13:16:03.912Z,83.30
2017-11-09T13:18:31.394Z,86.53
2017-11-09T13:20:58.859Z,80.25
2017-11-09T13:23:26.336Z,76.80
2017-11-09T13:25:54.553Z,82.07
2017-11-09T13:28:22.036Z,95.20
2017-11-09T13:30:49.502Z,84.43
2017-11-09T13:33:17.062Z,80.45
2017-11-09T13:35:44.622Z,95.15
2017-11-09T13:38:12.085Z,81.07
2017-11-09T13:40:39.635Z,89.43
2017-11-09T13:43:11.033Z,91.40
2017-11-09T13:45:41.289Z,90.20
2017-11-09T13:48:08.865Z,75.57
2017-11-09T13:50:36.523Z,75.68
2017-11-09T13:53:04.082Z,74.62
2017-11-09T13:55:31.637Z,84.50
2017-11-09T13:57:59.102Z,88.30
2017-11-09T14:00:27.449Z,80.60
2017-11-09T14:02:54.909Z,78.60
2017-11-09T14:05:24.189Z,90.85
2017-11-09T14:07:51.686Z,78.75
2017-11-09T14:10:21.149Z,84.00
2017-11-09T14:12:48.605Z,82.25
2017-11-09T14:15:16.074Z,88.32
2017-11-09T14:17:43.567Z,78.60
2017-11-09T14:20:11.145Z,84.62
2017-11-09T14:22:38.683Z,85.95
2017-11-09T14:25:06.231Z,84.10
2017-11-09T14:27:33.695Z,79.57
2017-11-09T14:30:01.257Z,90.03
2017-11-09T14:32:28.814Z,83.65
2017-11-09T14:34:56.277Z,80.18
2017-11-09T14:37:23.734Z,82.70
2017-11-09T14:39:51.284Z,88.65
2017-11-09T14:42:18.745Z,79.28
2017-11-09T14:44:46.210Z,100.07
2017-11-09T14:47:17.507Z,90.87
2017-11-09T14:49:44.966Z,93.80
2017-11-09T14:52:12.460Z,86.25
2017-11-09T14:54:39.938Z,100.90
2017-11-09T14:57:08.179Z,88.82
2017-11-09T14:59:35.637Z,93.00
2017-11-09T15:02:03.095Z,89.53
2017-11-09T15:04:30.653Z,84.03
2017-11-09T15:06:58.119Z,100.25
2017-11-09T15:09:25.587Z,92.57
2017-11-09T15:11:53.130Z,97.00
2017-11-09T15:14:20.686Z,94.53
2017-11-09T15:16:48.255Z,109.45
2017-11-09T15:19:15.826Z,85.10
2017-11-09T15:21:43.299Z,87.15
2017-11-09T15:24:11.528Z,99.95
2017-11-09T15:26:38.987Z,94.37
2017-11-09T15:29:06.454Z,98.62
2017-11-09T15:31:33.914Z,96.40
2017-11-09T15:34:01.378Z,105.47
2017-11-09T15:36:28.855Z,104.20
2017-11-09T15:38:58.027Z,103.53
2017-11-09T15:41:25.516Z,94.65
2017-11-09T15:43:53.039Z,113.03
2017-11-09T15:46:20.594Z,112.30
2017-11-09T15:48:48.059Z,102.65
2017-11-09T15:51:15.606Z,93.62
2017-11-09T15:53:43.074Z,103.43
2017-11-09T15:56:10.625Z,102.70
2017-11-09T15:58:39.606Z,105.57
2017-11-09T16:01:07.187Z,114.05
2017-11-09T16:03:34.735Z,94.87
2017-11-09T16:06:02.190Z,107.63
2017-11-09T16:08:29.660Z,88.55
2017-11-09T16:10:57.113Z,95.25
2017-11-09T16:13:24.579Z,99.82
2017-11-09T16:15:52.819Z,115.75
2017-11-09T16:18:20.278Z,93.75
2017-11-09T16:20:47.747Z,94.60
2017-11-09T16:23:15.205Z,95.18
2017-11-09T16:25:42.676Z,93.30
2017-11-09T16:28:10.220Z,95.95
2017-11-09T16:30:37.781Z,111.32
2017-11-09T16:33:06.014Z,91.80
2017-11-09T16:35:33.477Z,89.10
2017-11-09T16:38:00.970Z,94.35
2017-11-09T16:40:28.437Z,97.95
2017-11-09T16:42:55.981Z,99.15
2017-11-09T16:45:23.452Z,89.95
2017-11-09T16:47:51.017Z,88.72
2017-11-09T16:50:19.281Z,94.03
2017-11-09T16:52:46.855Z,91.50
2017-11-09T16:55:15.117Z,98.68
2017-11-09T16:57:42.605Z,95.90
2017-11-09T17:00:10.135Z,90.45
2017-11-09T17:02:37.610Z,104.65
2017-11-09T17:05:05.842Z,100.65
2017-11-09T17:07:33.305Z,119.93
2017-11-09T17:10:00.780Z,94.30
2017-11-09T17:12:28.342Z,105.53
2017-11-09T17:15:00.778Z,106.28
2017-11-09T17:17:28.246Z,105.93
2017-11-09T17:19:55.719Z,114.43
2017-11-09T17:22:23.188Z,116.15
2017-11-09T17:24:50.654Z,98.60
2017-11-09T17:27:18.909Z,102.65
2017-11-09T17:29:46.379Z,108.80
2017-11-09T17:32:14.647Z,114.35
2017-11-09T17:34:42.202Z,104.95
2017-11-09T17:37:09.760Z,117.60
2017-11-09T17:39:37.239Z,112.78
2017-11-09T17:42:06.410Z,110.88
2017-11-09T17:44:33.891Z,106.20
2017-11-09T17:47:02.155Z,129.12
2017-11-09T17:49:29.705Z,112.50
2017-11-09T17:51:57.268Z,127.78
2017-11-09T17:54:24.822Z,125.43
2017-11-09T17:56:52.386Z,119.53
2017-11-09T17:59:22.808Z,127.22
2017-11-09T18:01:50.269Z,129.25
2017-11-09T18:04:17.747Z,117.25
2017-11-09T18:06:45.979Z,122.10
2017-11-09T18:09:13.446Z,119.18
2017-11-09T18:11:41.006Z,119.90
2017-11-09T18:14:08.483Z,125.40
2017-11-09T18:16:36.753Z,127.97
2017-11-09T18:19:04.297Z,141.40
2017-11-09T18:21:31.850Z,123.53
2017-11-09T18:23:59.314Z,122.10
2017-11-09T18:26:26.772Z,137.68
2017-11-09T18:28:54.326Z,116.95
2017-11-09T18:31:21.802Z,122.80
2017-11-09T18:33:50.029Z,118.97
2017-11-09T18:36:17.525Z,109.10
2017-11-09T18:38:44.989Z,116.00
2017-11-09T18:41:13.227Z,120.97
2017-11-09T18:43:40.706Z,118.45
2017-11-09T18:46:08.178Z,107.60
2017-11-09T18:48:36.402Z,117.35
2017-11-09T18:51:03.878Z,131.30
2017-11-09T18:53:31.344Z,131.57
2017-11-09T18:55:58.910Z,112.47
2017-11-09T18:58:26.474Z,124.50
2017-11-09T19:00:53.958Z,134.77
2017-11-09T19:03:22.185Z,128.48
2017-11-09T19:05:49.767Z,119.18
2017-11-09T19:08:17.223Z,128.07
2017-11-09T19:10:44.788Z,142.35
2017-11-09T19:13:13.030Z,114.72
2017-11-09T19:15:40.574Z,135.35
2017-11-09T19:18:08.025Z,117.62
2017-11-09T19:20:35.521Z,135.93
2017-11-09T19:23:03.088Z,140.98
2017-11-09T19:25:30.552Z,127.35
2017-11-09T19:27:58.794Z,120.40
2017-11-09T19:30:26.261Z,111.88
2017-11-09T19:32:55.238Z,124.55
2017-11-09T19:35:22.694Z,131.12
2017-11-09T19:37:50.175Z,123.87
2017-11-09T19:40:17.793Z,119.60
2017-11-09T19:42:45.266Z,125.28
2017-11-09T19:45:12.746Z,130.98
2017-11-09T19:47:40.220Z,116.22
2017-11-09T19:50:07.681Z,138.30
2017-11-09T19:52:35.921Z,102.07
2017-11-09T19:55:03.390Z,131.18
2017-11-09T19:57:30.949Z,125.32
2017-11-09T19:59:58.522Z,114.55
2017-11-09T20:02:27.494Z,115.18
2017-11-09T20:04:54.974Z,125.85
2017-11-09T20:07:22.514Z,117.05
2017-11-09T20:09:49.998Z,122.82
2017-11-09T20:12:18.249Z,112.05
2017-11-09T20:14:45.716Z,131.87
2017-11-09T20:17:13.179Z,117.00
2017-11-09T20:19:41.422Z,106.37
2017-11-09T20:22:08.910Z,121.37
2017-11-09T20:24:36.381Z,109.85
2017-11-09T20:27:04.618Z,102.38
2017-11-09T20:29:32.106Z,115.82
2017-11-09T20:32:00.342Z,107.47
2017-11-09T20:34:27.803Z,123.65
2017-11-09T20:36:55.282Z,120.90
2017-11-09T20:39:22.788Z,104.68
2017-11-09T20:41:50.254Z,119.00
2017-11-09T20:44:17.722Z,101.10
2017-11-09T20:46:45.197Z,102.43
2017-11-09T20:49:12.662Z,110.53
2017-11-09T20:51:40.938Z,121.18
2017-11-09T20:54:08.496Z,118.93
2017-11-09T20:56:36.056Z,133.30
2017-11-09T20:59:03.518Z,102.03
2017-11-09T21:01:31.786Z,97.07
2017-11-09T21:03:59.252Z,122.07
2017-11-09T21:06:27.518Z,113.62
2017-11-09T21:08:54.976Z,88.60
2017-11-09T21:11:22.465Z,100.70
2017-11-09T21:13:50.702Z,112.12
2017-11-09T21:16:18.276Z,117.60
2017-11-09T21:18:46.535Z,99.72
2017-11-09T21:21:13.982Z,103.32
2017-11-09T21:23:41.457Z,94.95
2017-11-09T21:26:09.010Z,115.12
2017-11-09T21:28:36.476Z,103.22
2017-11-09T21:31:04.003Z,92.05
2017-11-09T21:33:31.465Z,94.28
2017-11-09T21:35:58.925Z,104.32
2017-11-09T21:38:26.399Z,105.18
2017-11-09T21:40:53.856Z,93.05
2017-11-09T21:43:21.341Z,110.10
2017-11-09T21:45:49.566Z,92.85
2017-11-09T21:48:17.047Z,98.20
2017-11-09T21:50:45.281Z,94.05
2017-11-09T21:53:12.756Z,101.03
2017-11-09T21:55:40.222Z,108.50
2017-11-09T21:58:07.790Z,102.25
2017-11-09T22:00:35.257Z,98.70
2017-11-09T22:03:03.507Z,100.00
2017-11-09T22:05:31.080Z,105.53
2017-11-09T22:07:58.538Z,114.03
2017-11-09T22:10:26.003Z,104.25
2017-11-09T22:12:53.467Z,102.78
2017-11-09T22:15:21.706Z,101.50
2017-11-09T22:17:49.160Z,89.75
2017-11-09T22:20:16.634Z,88.50
2017-11-09T22:22:44.096Z,95.30
2017-11-09T22:25:11.562Z,94.18
2017-11-09T22:27:39.113Z,91.30
2017-11-09T22:30:06.670Z,96.10
2017-11-09T22:32:34.231Z,98.70
2017-11-09T22:35:01.695Z,83.55
2017-11-09T22:37:29.949Z,86.12
2017-11-09T22:39:57.577Z,90.28
2017-11-09T22:42:25.035Z,83.50
2017-11-09T22:44:52.506Z,84.30
2017-11-09T22:47:19.971Z,72.07
2017-11-09T22:49:47.509Z,82.53
2017-11-09T22:52:14.975Z,84.55
2017-11-09T22:54:42.461Z,85.80
2017-11-09T22:57:10.013Z,89.00
2017-11-09T22:59:37.469Z,85.07
2017-11-09T23:02:05.025Z,97.22
2017-11-09T23:04:32.490Z,80.12
2017-11-09T23:06:59.966Z,86.60
2017-11-09T23:09:28.194Z,80.30
2017-11-09T23:11:55.679Z,85.97
2017-11-09T23:14:23.139Z,89.13
2017-11-09T23:16:50.709Z,84.75
2017-11-09T23:19:18.261Z,81.30
2017-11-09T23:21:45.722Z,73.95
2017-11-09T23:24:13.265Z,75.78
2017-11-09T23:26:42.243Z,76.30
2017-11-09T23:29:09.712Z,80.70
2017-11-09T23:31:37.180Z,80.10
2017-11-09T23:34:04.645Z,79.37
2017-11-09T23:36:32.871Z,86.22
2017-11-09T23:39:00.361Z,76.10
2017-11-09T23:41:27.925Z,79.25
2017-11-09T23:43:55.409Z,70.45
2017-11-09T23:46:23.629Z,78.72
2017-11-09T23:48:51.117Z,77.32
2017-11-09T23:51:18.685Z,78.70
2017-11-09T23:53:46.230Z,77.20
2017-11-09T23:56:14.614Z,74.87
2017-11-09T23:58:42.096Z,72.43
